Sterling, Kansas
Current Conditions -  °F | °C
As of 7:28 AM on Sunday 21 Dec 2014 (Local Time) from KHUT Reporting Station
Haze Haze  
Wind Chill: 32°   Ceiling: 300
Heat Index: 40°   Visibility: 2.5mi
Dew Point: 37°   Wind: 14mph
Humidity: 89%   Direction: 170°S
Pressure: 29.96"   Gusts: NA
Location:  38.21°N, 98.21°W
Report Text: KHUT 211328Z 17012KT 2 1/2SM BR OVC003 04/03 A2996 RMK AO2 T00440028
Loading
Personal Weather Stations






























Interactive Weather Map New forecast layout! Learn more

10-Day Weather Forecast

Advertisements
Track Severe Weather on mobile